TimeCST,TemperatureF,Dew PointF,Humidity,Sea Level PressureIn,VisibilityMPH,Wind Direction,Wind SpeedMPH,Gust SpeedMPH,PrecipitationIn,Events,Conditions,WindDirDegrees,DateUTC
12:15 AM,1.4,-5.8,72,29.92,5.0,WSW,9.2,-,N/A,,Overcast,250,2013-02-04 06:15:00
12:35 AM,1.4,-5.8,72,29.92,7.0,WSW,5.8,-,N/A,,Overcast,240,2013-02-04 06:35:00
12:55 AM,1.4,-9.4,61,29.92,4.0,WSW,5.8,-,N/A,,Overcast,240,2013-02-04 06:55:00
1:15 AM,1.4,-7.6,66,29.92,3.0,WSW,4.6,-,N/A,,Overcast,250,2013-02-04 07:15:00
1:35 AM,-0.4,-7.6,72,29.92,3.0,WSW,3.5,-,N/A,,Overcast,240,2013-02-04 07:35:00
1:55 AM,-0.4,-7.6,72,29.92,3.0,WSW,3.5,-,N/A,,Overcast,240,2013-02-04 07:55:00
2:15 AM,-0.4,-5.8,78,29.92,6.0,WSW,3.5,-,N/A,,Overcast,240,2013-02-04 08:15:00
2:35 AM,-2.2,-7.6,78,29.92,10.0,WSW,3.5,-,N/A,,Mostly Cloudy,240,2013-02-04 08:35:00
2:55 AM,-4.0,-11.2,71,29.92,10.0,WSW,3.5,-,N/A,,Mostly Cloudy,240,2013-02-04 08:55:00
3:15 AM,-4.0,-7.6,85,29.92,9.0,WSW,3.5,-,N/A,,Overcast,240,2013-02-04 09:15:00
4:55 AM,-4.0,-7.6,85,29.92,3.0,WSW,5.8,-,N/A,,Overcast,250,2013-02-04 10:55:00
5:15 AM,-4.0,-9.4,78,29.92,3.0,WSW,4.6,-,N/A,,Overcast,250,2013-02-04 11:15:00
5:35 AM,-4.0,-9.4,78,29.93,3.0,WSW,4.6,-,N/A,,Overcast,240,2013-02-04 11:35:00
5:55 AM,-4.0,-11.2,71,29.93,5.0,WSW,5.8,-,N/A,,Overcast,240,2013-02-04 11:55:00
6:15 AM,-5.8,-9.4,84,29.92,9.0,WSW,4.6,-,N/A,,Overcast,250,2013-02-04 12:15:00
6:35 AM,-5.8,-9.4,84,29.92,8.0,WSW,6.9,-,N/A,,Mostly Cloudy,250,2013-02-04 12:35:00
6:55 AM,-5.8,-11.2,77,29.92,9.0,WSW,6.9,-,N/A,,Partly Cloudy,250,2013-02-04 12:55:00
7:15 AM,-5.8,-9.4,84,29.93,10.0,WSW,4.6,-,N/A,,Mostly Cloudy,240,2013-02-04 13:15:00
7:35 AM,-4.0,-9.4,78,29.93,9.0,WSW,5.8,-,N/A,,Overcast,240,2013-02-04 13:35:00
7:55 AM,-4.0,-7.6,85,29.93,5.0,WSW,5.8,-,N/A,,Scattered Clouds,240,2013-02-04 13:55:00
8:15 AM,-5.8,-13.0,71,29.94,9.0,West,5.8,-,N/A,,Clear,260,2013-02-04 14:15:00
8:35 AM,-5.8,-9.4,84,29.94,10.0,WSW,5.8,-,N/A,,Clear,250,2013-02-04 14:35:00
8:55 AM,-4.0,-11.2,71,29.93,3.0,WSW,4.6,-,N/A,,Clear,250,2013-02-04 14:55:00
9:15 AM,-4.0,-7.6,85,29.93,10.0,WSW,5.8,-,N/A,,Clear,250,2013-02-04 15:15:00
9:35 AM,-2.2,-5.8,85,29.93,9.0,WSW,6.9,-,N/A,,Clear,250,2013-02-04 15:35:00
9:55 AM,1.4,-0.4,92,29.94,7.0,SW,5.8,-,N/A,,Clear,230,2013-02-04 15:55:00
10:15 AM,1.4,-2.2,85,29.94,10.0,WSW,6.9,-,N/A,,Clear,240,2013-02-04 16:15:00
10:35 AM,3.2,-2.2,78,29.94,10.0,West,10.4,-,N/A,,Clear,260,2013-02-04 16:35:00
10:55 AM,3.2,-5.8,66,29.95,10.0,WSW,6.9,-,N/A,,Clear,250,2013-02-04 16:55:00
11:15 AM,3.2,-5.8,66,29.94,10.0,WSW,5.8,-,N/A,,Clear,240,2013-02-04 17:15:00
11:35 AM,5.0,-4.0,66,29.94,10.0,West,5.8,-,N/A,,Clear,260,2013-02-04 17:35:00
11:55 AM,5.0,-4.0,66,29.94,10.0,West,6.9,-,N/A,,Clear,270,2013-02-04 17:55:00
12:15 PM,6.8,-2.2,67,29.92,10.0,West,5.8,-,N/A,,Clear,260,2013-02-04 18:15:00
12:35 PM,6.8,-5.8,56,29.92,10.0,SSW,5.8,-,N/A,,Clear,210,2013-02-04 18:35:00
12:55 PM,6.8,-5.8,56,29.91,10.0,WSW,4.6,-,N/A,,Clear,250,2013-02-04 18:55:00
1:15 PM,6.8,-7.6,52,29.89,10.0,West,4.6,-,N/A,,Clear,270,2013-02-04 19:15:00
1:35 PM,6.8,-7.6,52,29.88,10.0,West,8.1,-,N/A,,Clear,270,2013-02-04 19:35:00
1:55 PM,8.6,-7.6,48,29.87,10.0,West,4.6,-,N/A,,Clear,270,2013-02-04 19:55:00
2:15 PM,8.6,-7.6,48,29.87,10.0,West,4.6,-,N/A,,Clear,270,2013-02-04 20:15:00
2:35 PM,8.6,-7.6,48,29.86,10.0,West,3.5,-,N/A,,Clear,280,2013-02-04 20:35:00
2:55 PM,8.6,-5.8,52,29.86,10.0,West,8.1,-,N/A,,Clear,260,2013-02-04 20:55:00
3:15 PM,8.6,-9.4,44,29.86,10.0,West,6.9,-,N/A,,Clear,270,2013-02-04 21:15:00
3:35 PM,8.6,-7.6,48,29.86,10.0,West,9.2,-,N/A,,Clear,270,2013-02-04 21:35:00
4:15 PM,8.6,-11.2,40,29.86,10.0,West,9.2,-,N/A,,Clear,260,2013-02-04 22:15:00
4:35 PM,8.6,-9.4,44,29.86,10.0,WSW,5.8,-,N/A,,Clear,250,2013-02-04 22:35:00
4:55 PM,8.6,-9.4,44,29.85,10.0,SW,3.5,-,N/A,,Clear,230,2013-02-04 22:55:00
5:15 PM,6.8,-11.2,44,29.84,10.0,Calm,Calm,-,N/A,,Mostly Cloudy,0,2013-02-04 23:15:00
5:35 PM,3.2,-7.6,61,29.83,10.0,Calm,Calm,-,N/A,,Mostly Cloudy,0,2013-02-04 23:35:00
5:55 PM,1.4,-7.6,66,29.83,10.0,Calm,Calm,-,N/A,,Partly Cloudy,0,2013-02-04 23:55:00
6:15 PM,1.4,-7.6,66,29.83,10.0,Calm,Calm,-,N/A,,Clear,0,2013-02-05 00:15:00
6:35 PM,1.4,-9.4,61,29.82,10.0,Calm,Calm,-,N/A,,Clear,0,2013-02-05 00:35:00
6:55 PM,-2.2,-11.2,66,29.81,10.0,SSE,3.5,-,N/A,,Clear,160,2013-02-05 00:55:00
7:15 PM,-4.0,-14.8,60,29.81,10.0,Calm,Calm,-,N/A,,Clear,0,2013-02-05 01:15:00
7:35 PM,-4.0,-9.4,78,29.80,10.0,Calm,Calm,-,N/A,,Clear,0,2013-02-05 01:35:00
7:55 PM,-5.8,-11.2,77,29.80,10.0,Calm,Calm,-,N/A,,Clear,0,2013-02-05 01:55:00
8:15 PM,-2.2,-9.4,71,29.79,10.0,SW,5.8,-,N/A,,Clear,230,2013-02-05 02:15:00
8:35 PM,-0.4,-5.8,78,29.79,10.0,Calm,Calm,-,N/A,,Mostly Cloudy,0,2013-02-05 02:35:00
8:55 PM,1.4,-7.6,66,29.78,10.0,SSW,4.6,-,N/A,,Overcast,210,2013-02-05 02:55:00
9:15 PM,3.2,-7.6,61,29.78,10.0,Calm,Calm,-,N/A,,Mostly Cloudy,0,2013-02-05 03:15:00
9:35 PM,3.2,-7.6,61,29.77,10.0,West,3.5,-,N/A,,Mostly Cloudy,260,2013-02-05 03:35:00
9:55 PM,1.4,-9.4,61,29.76,10.0,Calm,Calm,-,N/A,,Scattered Clouds,0,2013-02-05 03:55:00
10:15 PM,6.8,-4.0,61,29.75,10.0,SSW,3.5,-,N/A,,Mostly Cloudy,210,2013-02-05 04:15:00
10:35 PM,5.0,-9.4,52,29.74,10.0,Calm,Calm,-,N/A,,Overcast,0,2013-02-05 04:35:00
10:55 PM,3.2,-7.6,61,29.74,10.0,Calm,Calm,-,N/A,,Overcast,0,2013-02-05 04:55:00
11:15 PM,6.8,-5.8,56,29.73,10.0,Calm,Calm,-,N/A,,Overcast,0,2013-02-05 05:15:00
11:35 PM,8.6,-5.8,52,29.74,10.0,SW,5.8,-,N/A,,Overcast,220,2013-02-05 05:35:00
11:55 PM,8.6,-2.2,62,29.74,10.0,SW,8.1,-,N/A,,Overcast,230,2013-02-05 05:55:00